createdAt,value
2023-07-10T00:01:52.837Z,40.86
2023-07-10T00:06:50.096Z,40.88
2023-07-10T00:11:49.396Z,40.68
2023-07-10T00:16:48.727Z,40.19
2023-07-10T00:21:48.993Z,40.58
2023-07-10T00:26:47.264Z,39.89
2023-07-10T00:31:46.536Z,39.51
2023-07-10T00:36:45.755Z,39.89
2023-07-10T00:41:45.010Z,40.01
2023-07-10T00:46:43.278Z,40.31
2023-07-10T00:51:43.566Z,40.19
2023-07-10T00:56:42.804Z,39.99
2023-07-10T01:01:42.077Z,40.09
2023-07-10T01:06:41.298Z,39.99
2023-07-10T01:11:40.576Z,40.09
2023-07-10T01:16:39.872Z,39.69
2023-07-10T01:21:39.159Z,39.71
2023-07-10T01:26:38.788Z,39.89
2023-07-10T01:31:38.672Z,39.40
2023-07-10T01:36:37.915Z,39.81
2023-07-10T01:41:38.172Z,39.59
2023-07-10T01:46:35.419Z,39.79
2023-07-10T01:51:36.648Z,39.69
2023-07-10T01:56:33.921Z,39.79
2023-07-10T02:01:34.238Z,39.99
2023-07-10T02:06:32.480Z,39.69
2023-07-10T02:11:31.799Z,39.69
2023-07-10T02:16:32.993Z,39.40
2023-07-10T02:21:31.255Z,39.40
2023-07-10T02:26:29.489Z,39.71
2023-07-10T02:31:28.789Z,39.12
2023-07-10T02:36:28.083Z,39.50
2023-07-10T02:41:28.359Z,39.81
2023-07-10T02:46:26.671Z,39.50
2023-07-10T02:51:25.756Z,39.29
2023-07-10T02:56:26.009Z,39.10
2023-07-10T03:01:25.250Z,39.02
2023-07-10T03:06:24.486Z,39.12
2023-07-10T03:11:23.709Z,39.51
2023-07-10T03:16:22.943Z,39.51
2023-07-10T03:21:21.172Z,39.31
2023-07-10T03:26:20.386Z,39.43
2023-07-10T03:31:19.684Z,39.22
2023-07-10T03:36:18.937Z,39.53
2023-07-10T03:41:19.153Z,39.53
2023-07-10T03:46:17.401Z,39.63
2023-07-10T03:51:16.649Z,39.51
2023-07-10T03:56:16.892Z,39.71
2023-07-10T04:01:15.226Z,39.81
2023-07-10T04:06:14.281Z,39.81
2023-07-10T04:11:13.567Z,39.71
2023-07-10T04:16:14.858Z,39.63
2023-07-10T04:21:13.062Z,39.61
2023-07-10T04:26:12.322Z,39.63
2023-07-10T04:31:11.602Z,39.63
2023-07-10T04:36:09.831Z,39.53
2023-07-10T04:41:09.196Z,39.53
2023-07-10T04:46:09.276Z,39.53
2023-07-10T04:51:07.520Z,39.63
2023-07-10T04:56:06.998Z,39.63
2023-07-10T05:01:04.992Z,39.73
2023-07-10T05:06:06.535Z,39.73
2023-07-10T05:11:04.500Z,39.63
2023-07-10T05:16:05.088Z,39.63
2023-07-10T05:21:03.071Z,39.53
2023-07-10T05:26:02.611Z,39.43
2023-07-10T05:31:00.491Z,39.53
2023-07-10T05:36:02.046Z,40.05
2023-07-10T05:41:00.082Z,39.31
2023-07-10T05:45:59.678Z,39.42
2023-07-10T05:50:58.590Z,39.22
2023-07-10T05:56:00.856Z,39.31
2023-07-10T06:00:57.149Z,39.51
2023-07-10T06:05:56.257Z,39.42
2023-07-10T06:10:55.536Z,39.93
2023-07-10T06:15:55.796Z,41.04
2023-07-10T06:20:54.003Z,41.06
2023-07-10T06:25:54.273Z,45.07
2023-07-10T06:30:52.471Z,43.96
2023-07-10T06:35:51.707Z,42.03
2023-07-10T06:40:50.953Z,42.31
2023-07-10T06:45:50.306Z,45.23
2023-07-10T06:50:49.353Z,43.52
2023-07-10T06:55:49.591Z,44.31
2023-07-10T07:00:49.825Z,46.44
2023-07-10T07:05:47.036Z,47.63
2023-07-10T07:10:48.300Z,44.90
2023-07-10T07:15:46.513Z,47.80
2023-07-10T07:20:44.761Z,48.10
2023-07-10T07:25:44.991Z,49.04
2023-07-10T07:30:45.445Z,49.81
2023-07-10T07:35:42.436Z,50.70
2023-07-10T07:40:41.770Z,51.03
2023-07-10T07:45:41.036Z,49.49
2023-07-10T07:50:40.274Z,50.68
2023-07-10T07:55:39.609Z,48.65
2023-07-10T08:00:40.856Z,56.38
2023-07-10T08:05:39.315Z,53.88
2023-07-10T08:10:39.399Z,53.73
2023-07-10T08:15:36.637Z,57.64
2023-07-10T08:20:35.875Z,53.83
2023-07-10T08:25:36.117Z,52.71
2023-07-10T08:30:34.368Z,53.18
2023-07-10T08:35:33.603Z,53.38
2023-07-10T08:40:32.857Z,53.08
2023-07-10T08:45:32.120Z,52.69
2023-07-10T08:50:31.553Z,52.96
2023-07-10T08:55:30.590Z,51.57
2023-07-10T09:00:29.838Z,49.29
2023-07-10T09:05:30.095Z,48.77
2023-07-10T09:10:28.347Z,48.58
2023-07-10T09:15:28.620Z,47.99
2023-07-10T09:20:26.948Z,48.58
2023-07-10T09:25:28.946Z,48.28
2023-07-10T09:30:26.204Z,48.97
2023-07-10T09:35:24.478Z,48.26
2023-07-10T09:40:23.724Z,48.55
2023-07-10T09:45:24.027Z,47.96
2023-07-10T09:50:22.272Z,47.66
2023-07-10T09:55:21.517Z,47.66
2023-07-10T10:00:20.762Z,47.56
2023-07-10T10:05:21.011Z,47.34
2023-07-10T10:10:19.287Z,47.05
2023-07-10T10:15:18.491Z,47.25
2023-07-10T10:20:17.736Z,47.15
2023-07-10T10:25:16.944Z,47.05
2023-07-10T10:30:16.172Z,47.05
2023-07-10T10:35:17.412Z,47.15
2023-07-10T10:40:15.667Z,46.93
2023-07-10T10:45:13.898Z,46.93
2023-07-10T10:50:14.121Z,47.22
2023-07-10T10:55:12.383Z,47.13
2023-07-10T11:00:10.667Z,46.83
2023-07-10T11:05:10.940Z,46.93
2023-07-10T11:10:10.177Z,46.81
2023-07-10T11:15:09.407Z,46.81
2023-07-10T11:20:09.680Z,46.91
2023-07-10T11:25:10.583Z,47.60
2023-07-10T11:30:09.222Z,46.81
2023-07-10T11:35:18.419Z,47.60
2023-07-10T11:40:05.745Z,47.08
2023-07-10T11:45:04.960Z,48.46
2023-07-10T11:50:03.236Z,48.46
2023-07-10T11:55:02.478Z,48.86
2023-07-10T12:00:02.810Z,49.05
2023-07-10T12:05:04.084Z,49.35
2023-07-10T12:10:01.325Z,49.35
2023-07-10T12:15:00.554Z,49.72
2023-07-10T12:19:59.783Z,49.13
2023-07-10T12:25:00.035Z,49.72
2023-07-10T12:30:00.263Z,49.72
2023-07-10T12:34:59.971Z,49.43
2023-07-10T12:39:56.786Z,50.12
2023-07-10T12:44:56.034Z,50.02
2023-07-10T12:49:55.279Z,50.51
2023-07-10T12:54:55.521Z,50.12
2023-07-10T12:59:54.762Z,49.62
2023-07-10T13:04:53.005Z,49.40
2023-07-10T13:09:52.261Z,49.40
2023-07-10T13:14:51.641Z,49.30
2023-07-10T13:20:06.820Z,49.69
2023-07-10T13:24:51.045Z,49.30
2023-07-10T13:29:50.343Z,49.69
2023-07-10T13:34:50.568Z,49.30
2023-07-10T13:39:47.846Z,49.50
2023-07-10T13:44:47.075Z,49.50
2023-07-10T13:49:46.325Z,49.67
2023-07-10T13:54:46.607Z,49.57
2023-07-10T13:59:46.852Z,49.48
2023-07-10T14:04:44.109Z,49.57
2023-07-10T14:09:43.358Z,49.57
2023-07-10T14:14:42.665Z,49.57
2023-07-10T14:19:41.863Z,49.57
2023-07-10T14:24:42.113Z,49.48
2023-07-10T14:29:40.342Z,49.48
2023-07-10T14:34:39.607Z,49.38
2023-07-10T14:39:38.867Z,49.28
2023-07-10T14:44:39.077Z,49.28
2023-07-10T14:49:37.308Z,49.08
2023-07-10T14:54:36.594Z,49.08
2023-07-10T14:59:35.873Z,48.86
2023-07-10T15:04:36.110Z,48.86
2023-07-10T15:09:34.369Z,48.86
2023-07-10T15:14:33.625Z,48.76
2023-07-10T15:19:32.872Z,48.66
2023-07-10T15:24:32.126Z,48.66
2023-07-10T15:29:31.528Z,48.57
2023-07-10T15:34:32.542Z,48.57
2023-07-10T15:39:29.761Z,48.57
2023-07-10T15:44:29.002Z,48.54
2023-07-10T15:49:28.221Z,48.76
2023-07-10T15:54:29.487Z,48.64
2023-07-10T15:59:29.860Z,48.44
2023-07-10T16:04:26.026Z,48.35
2023-07-10T16:09:26.089Z,48.35
2023-07-10T16:14:25.367Z,48.25
2023-07-10T16:19:24.584Z,48.35
2023-07-10T16:24:22.882Z,48.25
2023-07-10T16:29:24.161Z,48.14
2023-07-10T16:34:21.831Z,48.14
2023-07-10T16:39:20.648Z,48.05
2023-07-10T16:44:20.896Z,48.05
2023-07-10T16:49:21.150Z,47.95
2023-07-10T16:54:19.400Z,47.95
2023-07-10T16:59:19.635Z,47.83
2023-07-10T17:04:16.896Z,47.73
2023-07-10T17:09:16.152Z,47.73
2023-07-10T17:14:15.458Z,47.63
2023-07-10T17:19:14.610Z,47.63
2023-07-10T17:24:14.834Z,47.53
2023-07-10T17:29:13.076Z,47.53
2023-07-10T17:34:13.410Z,47.44
2023-07-10T17:39:21.162Z,47.44
2023-07-10T17:44:10.854Z,47.34
2023-07-10T17:49:09.929Z,47.44
2023-07-10T17:54:09.340Z,47.24
2023-07-10T17:59:08.611Z,47.24
2023-07-10T18:04:08.156Z,47.24
2023-07-10T18:09:07.429Z,47.24
2023-07-10T18:14:06.587Z,47.24
2023-07-10T18:19:06.847Z,49.80
2023-07-10T18:24:05.791Z,47.83
2023-07-10T18:29:04.269Z,47.85
2023-07-10T18:34:03.325Z,51.03
2023-07-10T18:39:02.592Z,50.85
2023-07-10T18:44:01.957Z,49.35
2023-07-10T18:49:01.889Z,53.64
2023-07-10T18:54:00.205Z,51.37
2023-07-10T18:58:59.497Z,53.77
2023-07-10T19:03:58.723Z,51.20
2023-07-10T19:08:58.097Z,52.70
2023-07-10T19:13:58.310Z,53.10
2023-07-10T19:18:56.495Z,52.04
2023-07-10T19:23:55.640Z,52.04
2023-07-10T19:28:56.042Z,52.53
2023-07-10T19:33:54.292Z,54.34
2023-07-10T19:38:53.487Z,54.96
2023-07-10T19:43:53.634Z,54.56
2023-07-10T19:48:51.972Z,54.53
2023-07-10T19:53:51.141Z,56.61
2023-07-10T19:58:53.350Z,57.30
2023-07-10T20:03:49.509Z,57.43
2023-07-10T20:08:49.468Z,59.17
2023-07-10T20:13:47.871Z,59.86
2023-07-10T20:18:47.149Z,60.06
2023-07-10T20:23:46.240Z,60.75
2023-07-10T20:28:46.481Z,58.80
2023-07-10T20:33:45.503Z,61.47
2023-07-10T20:38:43.814Z,61.80
2023-07-10T20:43:43.191Z,61.90
2023-07-10T20:48:42.265Z,61.10
2023-07-10T20:53:43.560Z,61.10
2023-07-10T20:58:41.816Z,63.02
2023-07-10T21:03:40.135Z,63.45
2023-07-10T21:08:39.432Z,64.23
2023-07-10T21:13:37.734Z,63.24
2023-07-10T21:18:37.954Z,63.34
2023-07-10T21:23:38.191Z,65.06
2023-07-10T21:28:36.420Z,64.96
2023-07-10T21:33:35.638Z,64.17
2023-07-10T21:38:35.886Z,64.70
2023-07-10T21:43:34.217Z,64.99
2023-07-10T21:48:33.458Z,64.99
2023-07-10T21:53:34.698Z,63.70
2023-07-10T21:58:31.934Z,64.53
2023-07-10T22:03:32.323Z,64.56
2023-07-10T22:08:30.406Z,65.52
2023-07-10T22:13:29.626Z,60.34
2023-07-10T22:18:28.878Z,56.57
2023-07-10T22:23:28.112Z,55.85
2023-07-10T22:28:27.341Z,55.43
2023-07-10T22:33:27.595Z,55.22
2023-07-10T22:38:26.865Z,55.13
2023-07-10T22:43:25.103Z,55.00
2023-07-10T22:48:24.384Z,55.03
2023-07-10T22:53:24.609Z,54.93
2023-07-10T22:58:23.855Z,54.83
2023-07-10T23:03:22.159Z,56.63
2023-07-10T23:08:22.411Z,62.18
2023-07-10T23:13:22.644Z,62.91
2023-07-10T23:18:19.882Z,64.76
2023-07-10T23:23:19.141Z,65.78
2023-07-10T23:28:18.397Z,66.08
2023-07-10T23:33:19.635Z,65.39
2023-07-10T23:38:16.879Z,65.72
2023-07-10T23:43:16.122Z,66.21
2023-07-10T23:48:16.388Z,65.42
2023-07-10T23:53:15.605Z,66.24
2023-07-10T23:58:13.851Z,66.44
